X  Close Metar Aviation Weather Data     KBNA Nashville International Airport
Temperature
75°F Temperature
63°F Dewpoint
65% Humidity



Wind
3 MPH
5 KM/H
1 M/S
3 KTS



Calm
North
Current Conditions

Mostly Cloudy Mostly Cloudy
Pressure 1010.12 (hPa) - 29.83 (inHg)
Visibility 10 (mile) - 16.1 (km)
Airport
Airport-code KBNA

Location: Nashville International Airport
Distance: 28 (mi)

Metar:
KBNA 190953Z VRB03KT 10SM BKN055 BKN250 24/17 A2983 RMK AO2 SLP095 T02440172

Time: 05-19-2022 4:53 am CDT